sensor_id;sensor_type;location;lat;lon;timestamp;P1;durP1;ratioP1;P2;durP2;ratioP2
39612;SDS011;25303;48.896;13.342;2023-02-15T00:00:51;3.15;;;1.90;;
39612;SDS011;25303;48.896;13.342;2023-02-15T00:03:36;4.55;;;2.15;;
39612;SDS011;25303;48.896;13.342;2023-02-15T00:06:19;3.47;;;1.90;;
39612;SDS011;25303;48.896;13.342;2023-02-15T00:09:02;5.00;;;2.40;;
39612;SDS011;25303;48.896;13.342;2023-02-15T00:11:46;3.13;;;1.88;;
39612;SDS011;25303;48.896;13.342;2023-02-15T00:14:32;4.15;;;1.67;;
39612;SDS011;25303;48.896;13.342;2023-02-15T00:17:14;3.15;;;1.70;;
39612;SDS011;25303;48.896;13.342;2023-02-15T00:19:57;3.53;;;1.48;;
39612;SDS011;25303;48.896;13.342;2023-02-15T00:22:40;2.75;;;1.30;;
39612;SDS011;25303;48.896;13.342;2023-02-15T00:25:23;3.35;;;1.20;;
39612;SDS011;25303;48.896;13.342;2023-02-15T00:28:07;2.35;;;1.20;;
39612;SDS011;25303;48.896;13.342;2023-02-15T00:30:50;3.08;;;1.20;;
39612;SDS011;25303;48.896;13.342;2023-02-15T00:33:33;2.28;;;1.00;;
39612;SDS011;25303;48.896;13.342;2023-02-15T00:36:16;1.95;;;1.10;;
39612;SDS011;25303;48.896;13.342;2023-02-15T00:39:02;2.08;;;1.10;;
39612;SDS011;25303;48.896;13.342;2023-02-15T00:41:46;2.00;;;1.00;;
39612;SDS011;25303;48.896;13.342;2023-02-15T00:44:30;3.45;;;1.20;;
39612;SDS011;25303;48.896;13.342;2023-02-15T00:47:13;2.83;;;1.35;;
39612;SDS011;25303;48.896;13.342;2023-02-15T00:49:56;3.55;;;1.65;;
39612;SDS011;25303;48.896;13.342;2023-02-15T00:52:39;2.72;;;1.33;;
39612;SDS011;25303;48.896;13.342;2023-02-15T00:55:22;2.70;;;1.33;;
39612;SDS011;25303;48.896;13.342;2023-02-15T00:58:04;2.58;;;1.40;;
39612;SDS011;25303;48.896;13.342;2023-02-15T01:00:49;2.30;;;1.30;;
39612;SDS011;25303;48.896;13.342;2023-02-15T01:03:32;2.75;;;1.20;;
39612;SDS011;25303;48.896;13.342;2023-02-15T01:06:16;1.85;;;0.90;;
39612;SDS011;25303;48.896;13.342;2023-02-15T01:08:59;1.83;;;0.90;;
39612;SDS011;25303;48.896;13.342;2023-02-15T01:11:43;3.63;;;1.30;;
39612;SDS011;25303;48.896;13.342;2023-02-15T01:14:26;2.20;;;1.10;;
39612;SDS011;25303;48.896;13.342;2023-02-15T01:17:10;1.90;;;1.02;;
39612;SDS011;25303;48.896;13.342;2023-02-15T01:19:53;2.67;;;1.10;;
39612;SDS011;25303;48.896;13.342;2023-02-15T01:22:36;1.88;;;1.10;;
39612;SDS011;25303;48.896;13.342;2023-02-15T01:25:19;2.95;;;1.27;;
39612;SDS011;25303;48.896;13.342;2023-02-15T01:28:04;2.78;;;1.27;;
39612;SDS011;25303;48.896;13.342;2023-02-15T01:30:47;2.45;;;1.10;;
39612;SDS011;25303;48.896;13.342;2023-02-15T01:33:32;2.67;;;1.10;;
39612;SDS011;25303;48.896;13.342;2023-02-15T01:36:15;2.38;;;1.17;;
39612;SDS011;25303;48.896;13.342;2023-02-15T01:38:58;2.00;;;0.98;;
39612;SDS011;25303;48.896;13.342;2023-02-15T01:41:45;1.83;;;0.93;;
39612;SDS011;25303;48.896;13.342;2023-02-15T01:44:45;2.38;;;1.20;;
39612;SDS011;25303;48.896;13.342;2023-02-15T01:47:32;1.27;;;0.80;;
39612;SDS011;25303;48.896;13.342;2023-02-15T01:50:21;1.48;;;0.90;;
39612;SDS011;25303;48.896;13.342;2023-02-15T01:53:09;2.90;;;1.05;;
39612;SDS011;25303;48.896;13.342;2023-02-15T01:55:58;1.92;;;1.02;;
39612;SDS011;25303;48.896;13.342;2023-02-15T01:58:43;1.83;;;1.00;;
39612;SDS011;25303;48.896;13.342;2023-02-15T02:01:30;1.92;;;1.00;;
39612;SDS011;25303;48.896;13.342;2023-02-15T02:04:15;1.88;;;0.90;;
39612;SDS011;25303;48.896;13.342;2023-02-15T02:07:05;2.15;;;1.05;;
39612;SDS011;25303;48.896;13.342;2023-02-15T02:09:49;1.73;;;0.95;;
39612;SDS011;25303;48.896;13.342;2023-02-15T02:12:32;2.28;;;1.10;;
39612;SDS011;25303;48.896;13.342;2023-02-15T02:15:18;2.45;;;1.15;;
39612;SDS011;25303;48.896;13.342;2023-02-15T02:18:09;2.08;;;1.20;;
39612;SDS011;25303;48.896;13.342;2023-02-15T02:24:37;3.10;;;1.30;;
39612;SDS011;25303;48.896;13.342;2023-02-15T02:27:40;2.42;;;1.17;;
39612;SDS011;25303;48.896;13.342;2023-02-15T02:30:41;2.65;;;1.40;;
39612;SDS011;25303;48.896;13.342;2023-02-15T02:33:41;2.45;;;1.33;;
39612;SDS011;25303;48.896;13.342;2023-02-15T02:36:31;2.60;;;1.20;;
39612;SDS011;25303;48.896;13.342;2023-02-15T02:39:23;2.13;;;0.95;;
39612;SDS011;25303;48.896;13.342;2023-02-15T02:42:15;2.45;;;1.20;;
39612;SDS011;25303;48.896;13.342;2023-02-15T02:45:03;2.28;;;1.13;;
39612;SDS011;25303;48.896;13.342;2023-02-15T02:47:49;2.95;;;1.40;;
39612;SDS011;25303;48.896;13.342;2023-02-15T02:50:38;3.08;;;1.50;;
39612;SDS011;25303;48.896;13.342;2023-02-15T02:53:23;2.67;;;1.33;;
39612;SDS011;25303;48.896;13.342;2023-02-15T02:56:09;3.00;;;1.65;;
39612;SDS011;25303;48.896;13.342;2023-02-15T02:59:01;3.97;;;1.40;;
39612;SDS011;25303;48.896;13.342;2023-02-15T03:01:49;2.88;;;1.48;;
39612;SDS011;25303;48.896;13.342;2023-02-15T03:04:37;2.20;;;1.30;;
39612;SDS011;25303;48.896;13.342;2023-02-15T03:07:26;2.30;;;1.35;;
39612;SDS011;25303;48.896;13.342;2023-02-15T03:10:14;2.58;;;1.42;;
39612;SDS011;25303;48.896;13.342;2023-02-15T03:12:56;1.90;;;1.10;;
39612;SDS011;25303;48.896;13.342;2023-02-15T03:15:40;3.13;;;1.30;;
39612;SDS011;25303;48.896;13.342;2023-02-15T03:18:45;3.10;;;1.40;;
39612;SDS011;25303;48.896;13.342;2023-02-15T03:21:38;5.27;;;1.13;;
39612;SDS011;25303;48.896;13.342;2023-02-15T03:24:34;2.60;;;1.25;;
39612;SDS011;25303;48.896;13.342;2023-02-15T03:27:21;2.28;;;1.13;;
39612;SDS011;25303;48.896;13.342;2023-02-15T03:30:08;2.47;;;0.95;;
39612;SDS011;25303;48.896;13.342;2023-02-15T03:32:53;4.38;;;1.42;;
39612;SDS011;25303;48.896;13.342;2023-02-15T03:35:38;4.53;;;1.83;;
39612;SDS011;25303;48.896;13.342;2023-02-15T03:38:29;6.00;;;2.25;;
39612;SDS011;25303;48.896;13.342;2023-02-15T03:41:18;5.80;;;2.30;;
39612;SDS011;25303;48.896;13.342;2023-02-15T03:44:04;6.50;;;2.10;;
39612;SDS011;25303;48.896;13.342;2023-02-15T03:46:56;7.07;;;2.67;;
39612;SDS011;25303;48.896;13.342;2023-02-15T03:49:45;4.45;;;1.90;;
39612;SDS011;25303;48.896;13.342;2023-02-15T03:52:34;5.47;;;1.77;;
39612;SDS011;25303;48.896;13.342;2023-02-15T03:55:17;2.63;;;1.40;;
39612;SDS011;25303;48.896;13.342;2023-02-15T03:58:02;3.33;;;1.40;;
39612;SDS011;25303;48.896;13.342;2023-02-15T04:01:03;2.65;;;1.30;;
39612;SDS011;25303;48.896;13.342;2023-02-15T04:04:11;2.25;;;1.25;;
39612;SDS011;25303;48.896;13.342;2023-02-15T04:06:58;2.75;;;1.27;;
39612;SDS011;25303;48.896;13.342;2023-02-15T04:09:41;3.70;;;1.27;;
39612;SDS011;25303;48.896;13.342;2023-02-15T04:12:42;2.30;;;1.30;;
39612;SDS011;25303;48.896;13.342;2023-02-15T04:15:26;3.53;;;1.30;;
39612;SDS011;25303;48.896;13.342;2023-02-15T04:18:26;3.05;;;1.42;;
39612;SDS011;25303;48.896;13.342;2023-02-15T04:21:30;3.00;;;1.30;;
39612;SDS011;25303;48.896;13.342;2023-02-15T04:24:30;2.20;;;1.30;;
39612;SDS011;25303;48.896;13.342;2023-02-15T04:27:30;3.30;;;1.45;;
39612;SDS011;25303;48.896;13.342;2023-02-15T04:30:13;3.92;;;1.60;;
39612;SDS011;25303;48.896;13.342;2023-02-15T04:32:59;2.60;;;1.50;;
39612;SDS011;25303;48.896;13.342;2023-02-15T04:35:42;3.50;;;1.58;;
39612;SDS011;25303;48.896;13.342;2023-02-15T04:38:26;3.33;;;1.50;;
39612;SDS011;25303;48.896;13.342;2023-02-15T04:41:09;2.63;;;1.38;;
39612;SDS011;25303;48.896;13.342;2023-02-15T04:46:36;2.63;;;1.20;;
39612;SDS011;25303;48.896;13.342;2023-02-15T04:49:20;3.65;;;1.58;;
39612;SDS011;25303;48.896;13.342;2023-02-15T04:52:03;2.72;;;1.40;;
39612;SDS011;25303;48.896;13.342;2023-02-15T04:54:46;5.20;;;1.80;;
39612;SDS011;25303;48.896;13.342;2023-02-15T04:57:29;4.70;;;2.40;;
39612;SDS011;25303;48.896;13.342;2023-02-15T05:00:12;3.90;;;2.20;;
39612;SDS011;25303;48.896;13.342;2023-02-15T05:02:55;4.50;;;2.00;;
39612;SDS011;25303;48.896;13.342;2023-02-15T05:05:39;3.80;;;2.00;;
39612;SDS011;25303;48.896;13.342;2023-02-15T05:08:23;4.05;;;1.60;;
39612;SDS011;25303;48.896;13.342;2023-02-15T05:11:05;2.35;;;1.27;;
39612;SDS011;25303;48.896;13.342;2023-02-15T05:13:48;2.53;;;0.90;;
39612;SDS011;25303;48.896;13.342;2023-02-15T05:16:31;3.42;;;1.10;;
39612;SDS011;25303;48.896;13.342;2023-02-15T05:19:14;1.77;;;1.10;;
39612;SDS011;25303;48.896;13.342;2023-02-15T05:21:58;2.20;;;1.10;;
39612;SDS011;25303;48.896;13.342;2023-02-15T05:24:41;1.63;;;0.93;;
39612;SDS011;25303;48.896;13.342;2023-02-15T05:27:42;1.10;;;0.73;;
39612;SDS011;25303;48.896;13.342;2023-02-15T05:30:44;1.60;;;0.82;;
39612;SDS011;25303;48.896;13.342;2023-02-15T05:33:27;1.27;;;0.80;;
39612;SDS011;25303;48.896;13.342;2023-02-15T05:36:10;0.98;;;0.70;;
39612;SDS011;25303;48.896;13.342;2023-02-15T05:38:55;1.15;;;0.73;;
39612;SDS011;25303;48.896;13.342;2023-02-15T05:41:38;1.60;;;0.60;;
39612;SDS011;25303;48.896;13.342;2023-02-15T05:44:21;1.10;;;0.60;;
39612;SDS011;25303;48.896;13.342;2023-02-15T05:47:03;3.55;;;1.20;;
39612;SDS011;25303;48.896;13.342;2023-02-15T05:49:48;2.55;;;1.17;;
39612;SDS011;25303;48.896;13.342;2023-02-15T05:52:31;1.85;;;1.20;;
39612;SDS011;25303;48.896;13.342;2023-02-15T05:55:15;4.30;;;1.20;;
39612;SDS011;25303;48.896;13.342;2023-02-15T05:57:58;1.48;;;1.00;;
39612;SDS011;25303;48.896;13.342;2023-02-15T06:00:41;1.63;;;1.00;;
39612;SDS011;25303;48.896;13.342;2023-02-15T06:03:24;1.50;;;0.95;;
39612;SDS011;25303;48.896;13.342;2023-02-15T06:06:09;1.77;;;1.08;;
39612;SDS011;25303;48.896;13.342;2023-02-15T06:08:52;3.35;;;1.20;;
39612;SDS011;25303;48.896;13.342;2023-02-15T06:11:36;3.33;;;1.33;;
39612;SDS011;25303;48.896;13.342;2023-02-15T06:14:19;3.13;;;1.60;;
39612;SDS011;25303;48.896;13.342;2023-02-15T06:17:02;1.88;;;1.00;;
39612;SDS011;25303;48.896;13.342;2023-02-15T06:19:45;2.13;;;1.00;;
39612;SDS011;25303;48.896;13.342;2023-02-15T06:22:27;2.17;;;1.25;;
39612;SDS011;25303;48.896;13.342;2023-02-15T06:25:10;2.47;;;1.10;;
39612;SDS011;25303;48.896;13.342;2023-02-15T06:27:54;4.45;;;1.08;;
39612;SDS011;25303;48.896;13.342;2023-02-15T06:30:37;1.38;;;0.70;;
39612;SDS011;25303;48.896;13.342;2023-02-15T06:33:20;1.67;;;1.00;;
39612;SDS011;25303;48.896;13.342;2023-02-15T06:36:04;2.35;;;1.00;;
39612;SDS011;25303;48.896;13.342;2023-02-15T06:38:47;2.60;;;1.13;;
39612;SDS011;25303;48.896;13.342;2023-02-15T06:41:30;3.65;;;0.93;;
39612;SDS011;25303;48.896;13.342;2023-02-15T06:44:14;3.75;;;1.80;;
39612;SDS011;25303;48.896;13.342;2023-02-15T06:46:57;3.80;;;1.90;;
39612;SDS011;25303;48.896;13.342;2023-02-15T06:49:40;3.95;;;2.10;;
39612;SDS011;25303;48.896;13.342;2023-02-15T06:52:22;5.13;;;2.40;;
39612;SDS011;25303;48.896;13.342;2023-02-15T06:55:05;5.90;;;2.47;;
39612;SDS011;25303;48.896;13.342;2023-02-15T06:57:48;4.85;;;2.38;;
39612;SDS011;25303;48.896;13.342;2023-02-15T07:00:33;3.88;;;1.80;;
39612;SDS011;25303;48.896;13.342;2023-02-15T07:03:16;3.33;;;1.40;;
39612;SDS011;25303;48.896;13.342;2023-02-15T07:05:59;4.63;;;1.60;;
39612;SDS011;25303;48.896;13.342;2023-02-15T07:08:43;2.90;;;1.40;;
39612;SDS011;25303;48.896;13.342;2023-02-15T07:11:26;2.78;;;1.48;;
39612;SDS011;25303;48.896;13.342;2023-02-15T07:14:27;3.85;;;1.85;;
39612;SDS011;25303;48.896;13.342;2023-02-15T07:17:11;2.92;;;1.70;;
39612;SDS011;25303;48.896;13.342;2023-02-15T07:20:15;3.47;;;1.80;;
39612;SDS011;25303;48.896;13.342;2023-02-15T07:22:59;4.93;;;2.10;;
39612;SDS011;25303;48.896;13.342;2023-02-15T07:25:42;5.38;;;2.25;;
39612;SDS011;25303;48.896;13.342;2023-02-15T07:28:25;5.43;;;2.20;;
39612;SDS011;25303;48.896;13.342;2023-02-15T07:31:08;5.95;;;3.10;;
39612;SDS011;25303;48.896;13.342;2023-02-15T07:33:52;6.32;;;2.95;;
39612;SDS011;25303;48.896;13.342;2023-02-15T07:36:35;3.75;;;2.00;;
39612;SDS011;25303;48.896;13.342;2023-02-15T07:39:18;2.83;;;1.63;;
39612;SDS011;25303;48.896;13.342;2023-02-15T07:42:01;3.17;;;1.60;;
39612;SDS011;25303;48.896;13.342;2023-02-15T07:44:45;3.83;;;1.50;;
39612;SDS011;25303;48.896;13.342;2023-02-15T07:47:27;3.55;;;1.88;;
39612;SDS011;25303;48.896;13.342;2023-02-15T07:50:12;3.60;;;1.80;;
39612;SDS011;25303;48.896;13.342;2023-02-15T07:52:54;3.70;;;1.75;;
39612;SDS011;25303;48.896;13.342;2023-02-15T07:55:37;9.70;;;4.30;;
39612;SDS011;25303;48.896;13.342;2023-02-15T07:58:20;21.33;;;11.35;;
39612;SDS011;25303;48.896;13.342;2023-02-15T08:01:24;9.95;;;5.30;;
39612;SDS011;25303;48.896;13.342;2023-02-15T08:04:08;9.52;;;5.05;;
39612;SDS011;25303;48.896;13.342;2023-02-15T08:06:53;9.23;;;4.90;;
39612;SDS011;25303;48.896;13.342;2023-02-15T08:09:36;13.50;;;6.68;;
39612;SDS011;25303;48.896;13.342;2023-02-15T08:12:19;11.10;;;5.50;;
39612;SDS011;25303;48.896;13.342;2023-02-15T08:15:02;8.32;;;4.40;;
39612;SDS011;25303;48.896;13.342;2023-02-15T08:17:45;9.32;;;4.28;;
39612;SDS011;25303;48.896;13.342;2023-02-15T08:20:28;8.32;;;4.75;;
39612;SDS011;25303;48.896;13.342;2023-02-15T08:23:12;20.98;;;11.20;;
39612;SDS011;25303;48.896;13.342;2023-02-15T08:25:56;18.23;;;9.23;;
39612;SDS011;25303;48.896;13.342;2023-02-15T08:28:42;9.38;;;4.80;;
39612;SDS011;25303;48.896;13.342;2023-02-15T08:31:25;7.15;;;3.58;;
39612;SDS011;25303;48.896;13.342;2023-02-15T08:34:09;7.07;;;3.60;;
39612;SDS011;25303;48.896;13.342;2023-02-15T08:36:53;6.53;;;3.05;;
39612;SDS011;25303;48.896;13.342;2023-02-15T08:39:37;8.10;;;3.28;;
39612;SDS011;25303;48.896;13.342;2023-02-15T08:42:20;8.00;;;3.75;;
39612;SDS011;25303;48.896;13.342;2023-02-15T08:45:03;8.07;;;4.50;;
39612;SDS011;25303;48.896;13.342;2023-02-15T08:47:46;7.65;;;4.20;;
39612;SDS011;25303;48.896;13.342;2023-02-15T08:50:29;9.40;;;4.68;;
39612;SDS011;25303;48.896;13.342;2023-02-15T08:53:12;9.38;;;4.88;;
39612;SDS011;25303;48.896;13.342;2023-02-15T08:55:58;11.10;;;4.72;;
39612;SDS011;25303;48.896;13.342;2023-02-15T09:01:24;8.38;;;4.47;;
39612;SDS011;25303;48.896;13.342;2023-02-15T09:06:51;9.00;;;4.00;;
39612;SDS011;25303;48.896;13.342;2023-02-15T09:09:34;9.13;;;4.60;;
39612;SDS011;25303;48.896;13.342;2023-02-15T09:12:18;8.60;;;4.68;;
39612;SDS011;25303;48.896;13.342;2023-02-15T09:15:01;11.35;;;5.80;;
39612;SDS011;25303;48.896;13.342;2023-02-15T09:17:44;8.95;;;4.88;;
39612;SDS011;25303;48.896;13.342;2023-02-15T09:20:27;8.85;;;4.70;;
39612;SDS011;25303;48.896;13.342;2023-02-15T09:23:10;9.02;;;4.68;;
39612;SDS011;25303;48.896;13.342;2023-02-15T09:26:08;9.05;;;4.57;;
39612;SDS011;25303;48.896;13.342;2023-02-15T09:28:54;9.23;;;4.15;;
39612;SDS011;25303;48.896;13.342;2023-02-15T09:31:39;8.00;;;4.18;;
39612;SDS011;25303;48.896;13.342;2023-02-15T09:34:25;16.85;;;7.03;;
39612;SDS011;25303;48.896;13.342;2023-02-15T09:37:08;22.13;;;10.57;;
39612;SDS011;25303;48.896;13.342;2023-02-15T09:39:51;16.23;;;7.57;;
39612;SDS011;25303;48.896;13.342;2023-02-15T09:42:39;12.07;;;5.72;;
39612;SDS011;25303;48.896;13.342;2023-02-15T09:45:34;10.27;;;4.50;;
39612;SDS011;25303;48.896;13.342;2023-02-15T09:48:35;9.80;;;4.82;;
39612;SDS011;25303;48.896;13.342;2023-02-15T09:51:28;8.98;;;5.15;;
39612;SDS011;25303;48.896;13.342;2023-02-15T09:54:27;11.77;;;6.00;;
39612;SDS011;25303;48.896;13.342;2023-02-15T09:57:19;26.20;;;9.02;;
39612;SDS011;25303;48.896;13.342;2023-02-15T10:00:14;25.25;;;8.73;;
39612;SDS011;25303;48.896;13.342;2023-02-15T10:03:13;23.60;;;8.88;;
39612;SDS011;25303;48.896;13.342;2023-02-15T10:06:08;31.17;;;9.43;;
39612;SDS011;25303;48.896;13.342;2023-02-15T10:09:17;20.50;;;6.90;;
39612;SDS011;25303;48.896;13.342;2023-02-15T10:12:17;15.75;;;5.60;;
39612;SDS011;25303;48.896;13.342;2023-02-15T10:15:18;13.65;;;4.85;;
39612;SDS011;25303;48.896;13.342;2023-02-15T10:21:23;6.22;;;2.97;;
39612;SDS011;25303;48.896;13.342;2023-02-15T10:24:25;4.25;;;2.40;;
39612;SDS011;25303;48.896;13.342;2023-02-15T10:27:29;9.10;;;3.90;;
39612;SDS011;25303;48.896;13.342;2023-02-15T10:30:20;12.02;;;5.00;;
39612;SDS011;25303;48.896;13.342;2023-02-15T10:33:14;13.68;;;5.80;;
39612;SDS011;25303;48.896;13.342;2023-02-15T10:36:13;13.23;;;5.25;;
39612;SDS011;25303;48.896;13.342;2023-02-15T10:39:06;11.50;;;4.47;;
39612;SDS011;25303;48.896;13.342;2023-02-15T10:42:01;13.43;;;5.43;;
39612;SDS011;25303;48.896;13.342;2023-02-15T10:44:54;10.10;;;4.78;;
39612;SDS011;25303;48.896;13.342;2023-02-15T10:47:52;9.43;;;4.20;;
39612;SDS011;25303;48.896;13.342;2023-02-15T10:50:46;8.77;;;4.03;;
39612;SDS011;25303;48.896;13.342;2023-02-15T10:53:45;5.03;;;2.70;;
39612;SDS011;25303;48.896;13.342;2023-02-15T10:56:38;6.03;;;2.90;;
39612;SDS011;25303;48.896;13.342;2023-02-15T10:59:32;5.97;;;3.25;;
39612;SDS011;25303;48.896;13.342;2023-02-15T11:02:41;6.50;;;3.65;;
39612;SDS011;25303;48.896;13.342;2023-02-15T11:05:45;5.95;;;3.30;;
39612;SDS011;25303;48.896;13.342;2023-02-15T11:08:40;7.05;;;2.90;;
39612;SDS011;25303;48.896;13.342;2023-02-15T11:11:28;7.13;;;3.40;;
39612;SDS011;25303;48.896;13.342;2023-02-15T11:14:15;6.65;;;3.35;;
39612;SDS011;25303;48.896;13.342;2023-02-15T11:17:05;6.38;;;3.20;;
39612;SDS011;25303;48.896;13.342;2023-02-15T11:19:55;4.22;;;2.38;;
39612;SDS011;25303;48.896;13.342;2023-02-15T11:22:44;3.40;;;2.03;;
39612;SDS011;25303;48.896;13.342;2023-02-15T11:25:32;3.75;;;2.10;;
39612;SDS011;25303;48.896;13.342;2023-02-15T11:28:18;3.78;;;2.10;;
39612;SDS011;25303;48.896;13.342;2023-02-15T11:31:10;3.85;;;2.00;;
39612;SDS011;25303;48.896;13.342;2023-02-15T11:33:58;3.65;;;2.17;;
39612;SDS011;25303;48.896;13.342;2023-02-15T11:36:45;3.95;;;2.20;;
39612;SDS011;25303;48.896;13.342;2023-02-15T11:39:32;3.83;;;2.15;;
39612;SDS011;25303;48.896;13.342;2023-02-15T11:42:19;3.42;;;2.10;;
39612;SDS011;25303;48.896;13.342;2023-02-15T11:45:07;4.32;;;2.35;;
39612;SDS011;25303;48.896;13.342;2023-02-15T11:48:08;4.13;;;2.58;;
39612;SDS011;25303;48.896;13.342;2023-02-15T11:50:52;3.70;;;2.30;;
39612;SDS011;25303;48.896;13.342;2023-02-15T11:53:36;4.70;;;2.58;;
39612;SDS011;25303;48.896;13.342;2023-02-15T11:56:21;4.13;;;2.33;;
39612;SDS011;25303;48.896;13.342;2023-02-15T11:59:06;3.47;;;2.30;;
39612;SDS011;25303;48.896;13.342;2023-02-15T12:01:56;2.97;;;1.60;;
39612;SDS011;25303;48.896;13.342;2023-02-15T12:04:40;3.22;;;1.75;;
39612;SDS011;25303;48.896;13.342;2023-02-15T12:07:27;3.80;;;1.90;;
39612;SDS011;25303;48.896;13.342;2023-02-15T12:10:17;4.45;;;1.95;;
39612;SDS011;25303;48.896;13.342;2023-02-15T12:13:09;3.70;;;2.05;;
39612;SDS011;25303;48.896;13.342;2023-02-15T12:15:54;4.18;;;2.30;;
39612;SDS011;25303;48.896;13.342;2023-02-15T12:18:41;3.42;;;2.05;;
39612;SDS011;25303;48.896;13.342;2023-02-15T12:21:28;4.55;;;2.58;;
39612;SDS011;25303;48.896;13.342;2023-02-15T12:24:14;3.75;;;2.00;;
39612;SDS011;25303;48.896;13.342;2023-02-15T12:27:03;6.07;;;2.20;;
39612;SDS011;25303;48.896;13.342;2023-02-15T12:29:49;4.15;;;2.42;;
39612;SDS011;25303;48.896;13.342;2023-02-15T12:32:35;6.05;;;3.20;;
39612;SDS011;25303;48.896;13.342;2023-02-15T12:35:30;6.67;;;3.50;;
39612;SDS011;25303;48.896;13.342;2023-02-15T12:38:20;7.55;;;4.00;;
39612;SDS011;25303;48.896;13.342;2023-02-15T12:41:21;6.75;;;3.50;;
39612;SDS011;25303;48.896;13.342;2023-02-15T12:44:06;4.90;;;2.65;;
39612;SDS011;25303;48.896;13.342;2023-02-15T12:46:58;4.65;;;2.53;;
39612;SDS011;25303;48.896;13.342;2023-02-15T12:49:43;4.35;;;2.20;;
39612;SDS011;25303;48.896;13.342;2023-02-15T12:52:29;3.47;;;2.05;;
39612;SDS011;25303;48.896;13.342;2023-02-15T12:55:20;3.90;;;1.90;;
39612;SDS011;25303;48.896;13.342;2023-02-15T12:58:07;3.73;;;2.13;;
39612;SDS011;25303;48.896;13.342;2023-02-15T13:01:02;3.30;;;1.90;;
39612;SDS011;25303;48.896;13.342;2023-02-15T13:03:55;4.05;;;1.83;;
39612;SDS011;25303;48.896;13.342;2023-02-15T13:06:46;2.38;;;1.50;;
39612;SDS011;25303;48.896;13.342;2023-02-15T13:09:37;2.47;;;1.17;;
39612;SDS011;25303;48.896;13.342;2023-02-15T13:12:21;3.00;;;1.55;;
39612;SDS011;25303;48.896;13.342;2023-02-15T13:15:22;5.93;;;2.97;;
39612;SDS011;25303;48.896;13.342;2023-02-15T13:18:10;6.03;;;3.40;;
39612;SDS011;25303;48.896;13.342;2023-02-15T13:20:58;6.65;;;3.38;;
39612;SDS011;25303;48.896;13.342;2023-02-15T13:23:47;7.00;;;3.15;;
39612;SDS011;25303;48.896;13.342;2023-02-15T13:26:35;7.00;;;3.83;;
39612;SDS011;25303;48.896;13.342;2023-02-15T13:29:18;8.77;;;4.30;;
39612;SDS011;25303;48.896;13.342;2023-02-15T13:32:07;8.48;;;4.50;;
39612;SDS011;25303;48.896;13.342;2023-02-15T13:35:00;8.00;;;4.07;;
39612;SDS011;25303;48.896;13.342;2023-02-15T13:38:02;5.60;;;3.55;;
39612;SDS011;25303;48.896;13.342;2023-02-15T13:41:09;6.40;;;3.40;;
39612;SDS011;25303;48.896;13.342;2023-02-15T13:43:59;6.43;;;3.85;;
39612;SDS011;25303;48.896;13.342;2023-02-15T13:46:56;6.20;;;3.50;;
39612;SDS011;25303;48.896;13.342;2023-02-15T13:49:56;5.80;;;3.58;;
39612;SDS011;25303;48.896;13.342;2023-02-15T13:52:54;7.97;;;4.53;;
39612;SDS011;25303;48.896;13.342;2023-02-15T13:55:46;9.82;;;5.50;;
39612;SDS011;25303;48.896;13.342;2023-02-15T13:58:37;9.13;;;4.80;;
39612;SDS011;25303;48.896;13.342;2023-02-15T14:01:44;7.45;;;4.32;;
39612;SDS011;25303;48.896;13.342;2023-02-15T14:04:35;8.35;;;4.68;;
39612;SDS011;25303;48.896;13.342;2023-02-15T14:10:23;7.25;;;4.05;;
39612;SDS011;25303;48.896;13.342;2023-02-15T14:13:29;7.63;;;4.63;;
39612;SDS011;25303;48.896;13.342;2023-02-15T14:16:27;7.68;;;4.93;;
39612;SDS011;25303;48.896;13.342;2023-02-15T14:19:21;7.80;;;4.43;;
39612;SDS011;25303;48.896;13.342;2023-02-15T14:22:14;9.95;;;5.45;;
39612;SDS011;25303;48.896;13.342;2023-02-15T14:25:13;8.38;;;4.68;;
39612;SDS011;25303;48.896;13.342;2023-02-15T14:28:03;133.40;;;48.40;;
39612;SDS011;25303;48.896;13.342;2023-02-15T14:30:52;57.10;;;24.17;;
39612;SDS011;25303;48.896;13.342;2023-02-15T14:33:36;27.85;;;12.63;;
39612;SDS011;25303;48.896;13.342;2023-02-15T14:36:23;13.20;;;7.03;;
39612;SDS011;25303;48.896;13.342;2023-02-15T14:39:11;9.32;;;5.13;;
39612;SDS011;25303;48.896;13.342;2023-02-15T14:42:23;6.57;;;3.83;;
39612;SDS011;25303;48.896;13.342;2023-02-15T14:45:16;6.88;;;3.67;;
39612;SDS011;25303;48.896;13.342;2023-02-15T14:48:05;4.80;;;2.70;;
39612;SDS011;25303;48.896;13.342;2023-02-15T14:50:54;5.05;;;2.58;;
39612;SDS011;25303;48.896;13.342;2023-02-15T14:53:39;5.15;;;2.65;;
39612;SDS011;25303;48.896;13.342;2023-02-15T14:56:24;4.82;;;2.78;;
39612;SDS011;25303;48.896;13.342;2023-02-15T14:59:16;5.95;;;2.85;;
39612;SDS011;25303;48.896;13.342;2023-02-15T15:02:07;5.82;;;3.03;;
39612;SDS011;25303;48.896;13.342;2023-02-15T15:04:57;5.20;;;2.92;;
39612;SDS011;25303;48.896;13.342;2023-02-15T15:07:44;4.10;;;2.13;;
39612;SDS011;25303;48.896;13.342;2023-02-15T15:10:37;4.28;;;2.42;;
39612;SDS011;25303;48.896;13.342;2023-02-15T15:13:36;4.65;;;2.45;;
39612;SDS011;25303;48.896;13.342;2023-02-15T15:16:28;3.78;;;1.85;;
39612;SDS011;25303;48.896;13.342;2023-02-15T15:26:22;13.00;;;5.88;;
39612;SDS011;25303;48.896;13.342;2023-02-15T15:29:07;10.00;;;4.90;;
39612;SDS011;25303;48.896;13.342;2023-02-15T15:31:50;8.50;;;3.60;;
39612;SDS011;25303;48.896;13.342;2023-02-15T15:38:03;5.63;;;2.88;;
39612;SDS011;25303;48.896;13.342;2023-02-15T15:47:41;3.75;;;2.15;;
39612;SDS011;25303;48.896;13.342;2023-02-15T15:50:47;5.72;;;2.67;;
39612;SDS011;25303;48.896;13.342;2023-02-15T15:53:37;3.85;;;1.88;;
39612;SDS011;25303;48.896;13.342;2023-02-15T15:56:24;3.88;;;2.15;;
39612;SDS011;25303;48.896;13.342;2023-02-15T15:59:13;5.57;;;2.70;;
39612;SDS011;25303;48.896;13.342;2023-02-15T16:02:04;5.68;;;2.47;;
39612;SDS011;25303;48.896;13.342;2023-02-15T16:04:48;4.95;;;2.47;;
39612;SDS011;25303;48.896;13.342;2023-02-15T16:07:31;8.93;;;4.07;;
39612;SDS011;25303;48.896;13.342;2023-02-15T16:10:20;6.28;;;3.65;;
39612;SDS011;25303;48.896;13.342;2023-02-15T16:13:04;11.05;;;6.00;;
39612;SDS011;25303;48.896;13.342;2023-02-15T16:15:50;10.48;;;5.70;;
39612;SDS011;25303;48.896;13.342;2023-02-15T16:18:38;13.30;;;5.72;;
39612;SDS011;25303;48.896;13.342;2023-02-15T16:21:26;6.88;;;4.00;;
39612;SDS011;25303;48.896;13.342;2023-02-15T16:24:16;8.60;;;4.45;;
39612;SDS011;25303;48.896;13.342;2023-02-15T16:27:14;8.38;;;3.75;;
39612;SDS011;25303;48.896;13.342;2023-02-15T16:30:24;8.32;;;4.18;;
39612;SDS011;25303;48.896;13.342;2023-02-15T16:33:10;7.18;;;3.22;;
39612;SDS011;25303;48.896;13.342;2023-02-15T16:35:57;5.97;;;2.55;;
39612;SDS011;25303;48.896;13.342;2023-02-15T16:38:59;5.55;;;2.50;;
39612;SDS011;25303;48.896;13.342;2023-02-15T16:41:50;9.23;;;4.85;;
39612;SDS011;25303;48.896;13.342;2023-02-15T16:44:37;9.65;;;5.53;;
39612;SDS011;25303;48.896;13.342;2023-02-15T16:47:21;7.35;;;4.03;;
39612;SDS011;25303;48.896;13.342;2023-02-15T16:50:10;8.73;;;4.07;;
39612;SDS011;25303;48.896;13.342;2023-02-15T16:53:01;6.80;;;3.78;;
39612;SDS011;25303;48.896;13.342;2023-02-15T16:55:48;7.40;;;3.70;;
39612;SDS011;25303;48.896;13.342;2023-02-15T16:58:36;7.05;;;3.22;;
39612;SDS011;25303;48.896;13.342;2023-02-15T17:01:21;6.38;;;3.05;;
39612;SDS011;25303;48.896;13.342;2023-02-15T17:04:11;5.75;;;3.03;;
39612;SDS011;25303;48.896;13.342;2023-02-15T17:06:58;7.07;;;3.78;;
39612;SDS011;25303;48.896;13.342;2023-02-15T17:09:53;7.80;;;4.03;;
39612;SDS011;25303;48.896;13.342;2023-02-15T17:12:43;7.40;;;3.97;;